Time,TemperatureF,DewpointF,PressureIn,WindDirection,WindDirectionDegrees,WindSpeedMPH,WindSpeedGustMPH,Humidity,HourlyPrecipIn,Conditions,Clouds,dailyrainin,SoftwareType,DateUTC
2013-08-09 00:01:00,69.6,68.7,29.70,North,349,0.0,0.0,97,0.00,,,0.03,Wunderground v.1.15,2013-08-09 04:01:00,
2013-08-09 00:02:00,69.6,68.7,29.70,North,349,0.0,0.0,97,0.00,,,0.00,Wunderground v.1.15,2013-08-09 04:02:00,
2013-08-09 00:03:00,69.6,68.7,29.70,North,349,0.0,0.0,97,0.00,,,0.00,Wunderground v.1.15,2013-08-09 04:03:00,
2013-08-09 00:04:00,69.6,68.7,29.70,North,349,0.0,0.0,97,0.00,,,0.00,Wunderground v.1.15,2013-08-09 04:04:00,
2013-08-09 00:06:00,69.6,68.7,29.70,North,349,0.0,0.0,97,0.00,,,0.00,Wunderground v.1.15,2013-08-09 04:06:00,
2013-08-09 00:11:00,69.5,68.6,29.70,North,349,0.0,0.0,97,0.00,,,0.00,Wunderground v.1.15,2013-08-09 04:11:00,
2013-08-09 00:17:00,69.5,68.6,29.70,North,349,0.0,0.0,97,0.00,,,0.00,Wunderground v.1.15,2013-08-09 04:17:00,
2013-08-09 00:22:00,69.5,68.6,29.69,North,349,0.0,0.0,97,0.00,,,0.00,Wunderground v.1.15,2013-08-09 04:22:00,
2013-08-09 00:27:00,69.4,68.5,29.69,North,349,0.0,0.0,97,0.00,,,0.00,Wunderground v.1.15,2013-08-09 04:27:00,
2013-08-09 00:33:00,69.4,68.5,29.69,North,349,0.0,0.0,97,0.00,,,0.00,Wunderground v.1.15,2013-08-09 04:33:00,
2013-08-09 00:39:00,69.3,68.4,29.69,North,349,0.0,0.0,97,0.00,,,0.00,Wunderground v.1.15,2013-08-09 04:39:00,
2013-08-09 00:45:00,69.3,68.4,29.69,North,349,0.0,0.0,97,0.00,,,0.00,Wunderground v.1.15,2013-08-09 04:45:00,
2013-08-09 00:51:00,69.2,68.3,29.70,North,349,0.0,0.0,97,0.00,,,0.00,Wunderground v.1.15,2013-08-09 04:51:00,
2013-08-09 00:57:00,69.2,68.3,29.70,North,349,0.0,0.0,97,0.00,,,0.00,Wunderground v.1.15,2013-08-09 04:57:00,
2013-08-09 01:03:00,69.1,68.2,29.70,North,349,0.0,0.0,97,0.00,,,0.00,Wunderground v.1.15,2013-08-09 05:03:00,
2013-08-09 01:08:00,69.0,68.1,29.69,North,349,0.0,0.0,97,0.00,,,0.00,Wunderground v.1.15,2013-08-09 05:08:00,
2013-08-09 01:14:00,69.0,68.1,29.69,North,349,0.0,0.0,97,0.00,,,0.00,Wunderground v.1.15,2013-08-09 05:14:00,
2013-08-09 01:19:00,68.9,68.0,29.69,North,349,0.0,0.0,97,0.00,,,0.00,Wunderground v.1.15,2013-08-09 05:19:00,
2013-08-09 01:25:00,68.8,67.9,29.70,North,349,0.0,0.0,97,0.00,,,0.00,Wunderground v.1.15,2013-08-09 05:25:00,
2013-08-09 01:31:00,68.7,67.8,29.70,North,349,0.0,0.0,97,0.00,,,0.00,Wunderground v.1.15,2013-08-09 05:31:00,
2013-08-09 01:37:00,68.7,67.8,29.70,North,349,0.0,1.0,97,0.00,,,0.00,Wunderground v.1.15,2013-08-09 05:37:00,
2013-08-09 01:42:00,68.7,67.8,29.70,North,349,0.0,1.0,97,0.00,,,0.00,Wunderground v.1.15,2013-08-09 05:42:00,
2013-08-09 01:48:00,68.7,67.8,29.70,North,349,0.0,0.0,97,0.00,,,0.00,Wunderground v.1.15,2013-08-09 05:48:00,
2013-08-09 01:54:00,68.7,67.8,29.70,North,349,0.0,0.0,97,0.00,,,0.00,Wunderground v.1.15,2013-08-09 05:54:00,
2013-08-09 01:59:00,68.7,67.8,29.70,North,349,0.0,0.0,97,0.00,,,0.00,Wunderground v.1.15,2013-08-09 05:59:00,
2013-08-09 02:04:00,68.6,67.7,29.70,North,349,0.0,0.0,97,0.00,,,0.00,Wunderground v.1.15,2013-08-09 06:04:00,
2013-08-09 02:09:00,68.6,67.7,29.70,North,349,0.0,0.0,97,0.00,,,0.00,Wunderground v.1.15,2013-08-09 06:09:00,
2013-08-09 02:15:00,68.6,67.7,29.70,North,349,0.0,0.0,97,0.00,,,0.00,Wunderground v.1.15,2013-08-09 06:15:00,
2013-08-09 02:20:00,68.6,67.7,29.70,North,349,0.0,0.0,97,0.00,,,0.00,Wunderground v.1.15,2013-08-09 06:20:00,
2013-08-09 02:26:00,68.6,67.7,29.70,North,349,0.0,0.0,97,0.00,,,0.00,Wunderground v.1.15,2013-08-09 06:26:00,
2013-08-09 02:31:00,68.6,67.7,29.70,North,349,0.0,0.0,97,0.00,,,0.00,Wunderground v.1.15,2013-08-09 06:31:00,
2013-08-09 02:37:00,68.6,67.7,29.70,North,349,0.0,0.0,97,0.00,,,0.00,Wunderground v.1.15,2013-08-09 06:37:00,
2013-08-09 02:42:00,68.6,67.7,29.69,North,349,0.0,0.0,97,0.00,,,0.00,Wunderground v.1.15,2013-08-09 06:42:00,
2013-08-09 02:48:00,68.6,68.0,29.70,North,349,0.0,0.0,98,0.00,,,0.00,Wunderground v.1.15,2013-08-09 06:48:00,
2013-08-09 02:54:00,68.6,68.0,29.70,North,349,0.0,0.0,98,0.00,,,0.00,Wunderground v.1.15,2013-08-09 06:54:00,
2013-08-09 03:00:00,68.6,68.0,29.70,North,349,0.0,0.0,98,0.00,,,0.00,Wunderground v.1.15,2013-08-09 07:00:00,
2013-08-09 03:06:00,68.6,68.0,29.70,North,349,0.0,0.0,98,0.00,,,0.00,Wunderground v.1.15,2013-08-09 07:06:00,
2013-08-09 03:12:00,68.6,68.0,29.70,North,349,0.0,0.0,98,0.00,,,0.00,Wunderground v.1.15,2013-08-09 07:12:00,
2013-08-09 03:18:00,68.7,68.1,29.70,North,349,0.0,1.0,98,0.00,,,0.00,Wunderground v.1.15,2013-08-09 07:18:00,
2013-08-09 03:23:00,68.8,68.2,29.70,North,349,0.0,0.0,98,0.00,,,0.00,Wunderground v.1.15,2013-08-09 07:23:00,
2013-08-09 03:29:00,68.8,68.2,29.70,North,349,0.0,0.0,98,0.00,,,0.00,Wunderground v.1.15,2013-08-09 07:29:00,
2013-08-09 03:34:00,68.8,68.2,29.70,North,349,0.0,0.0,98,0.00,,,0.00,Wunderground v.1.15,2013-08-09 07:34:00,
2013-08-09 03:40:00,68.8,68.2,29.70,North,349,0.0,0.0,98,0.00,,,0.00,Wunderground v.1.15,2013-08-09 07:40:00,
2013-08-09 03:48:00,68.9,68.3,29.70,North,349,0.0,0.0,98,0.00,,,0.00,Wunderground v.1.15,2013-08-09 07:48:00,
2013-08-09 03:54:00,69.0,68.4,29.70,North,349,0.0,0.0,98,0.00,,,0.00,Wunderground v.1.15,2013-08-09 07:54:00,
2013-08-09 04:00:00,69.2,68.6,29.70,North,349,0.0,0.0,98,0.00,,,0.00,Wunderground v.1.15,2013-08-09 08:00:00,
2013-08-09 04:06:00,69.3,68.7,29.70,North,349,0.0,1.0,98,0.00,,,0.00,Wunderground v.1.15,2013-08-09 08:06:00,
2013-08-09 04:12:00,69.3,68.7,29.70,North,349,0.0,0.0,98,0.00,,,0.00,Wunderground v.1.15,2013-08-09 08:12:00,
2013-08-09 04:18:00,69.4,68.8,29.70,North,349,0.0,0.0,98,0.00,,,0.00,Wunderground v.1.15,2013-08-09 08:18:00,
2013-08-09 04:24:00,69.5,68.9,29.70,North,349,0.0,0.0,98,0.00,,,0.00,Wunderground v.1.15,2013-08-09 08:24:00,
2013-08-09 04:29:00,69.5,68.9,29.70,North,349,0.0,0.0,98,0.00,,,0.00,Wunderground v.1.15,2013-08-09 08:29:00,
2013-08-09 04:35:00,69.6,69.0,29.70,North,349,0.0,0.0,98,0.00,,,0.00,Wunderground v.1.15,2013-08-09 08:35:00,
2013-08-09 04:41:00,69.7,69.1,29.70,North,349,0.0,0.0,98,0.00,,,0.00,Wunderground v.1.15,2013-08-09 08:41:00,
2013-08-09 04:48:00,69.7,69.1,29.70,North,349,0.0,0.0,98,0.00,,,0.00,Wunderground v.1.15,2013-08-09 08:48:00,
2013-08-09 04:54:00,69.8,69.2,29.70,North,349,0.0,0.0,98,0.00,,,0.00,Wunderground v.1.15,2013-08-09 08:54:00,
2013-08-09 05:00:00,69.8,69.2,29.70,North,349,0.0,0.0,98,0.00,,,0.00,Wunderground v.1.15,2013-08-09 09:00:00,
2013-08-09 05:06:00,69.9,69.3,29.70,North,349,0.0,1.0,98,0.00,,,0.00,Wunderground v.1.15,2013-08-09 09:06:00,
2013-08-09 05:12:00,69.9,69.3,29.70,North,349,0.0,0.0,98,0.00,,,0.00,Wunderground v.1.15,2013-08-09 09:12:00,
2013-08-09 05:18:00,69.9,69.3,29.70,North,349,0.0,0.0,98,0.00,,,0.00,Wunderground v.1.15,2013-08-09 09:18:00,
2013-08-09 05:24:00,69.9,69.3,29.70,North,349,0.0,0.0,98,0.00,,,0.00,Wunderground v.1.15,2013-08-09 09:24:00,
2013-08-09 05:29:00,69.9,69.3,29.70,North,349,0.0,0.0,98,0.00,,,0.00,Wunderground v.1.15,2013-08-09 09:29:00,
2013-08-09 05:34:00,69.9,69.3,29.70,North,349,0.0,0.0,98,0.00,,,0.00,Wunderground v.1.15,2013-08-09 09:34:00,
2013-08-09 05:40:00,69.9,69.3,29.70,North,349,0.0,0.0,98,0.00,,,0.00,Wunderground v.1.15,2013-08-09 09:40:00,
2013-08-09 05:45:00,69.9,69.3,29.70,North,349,0.0,0.0,98,0.00,,,0.00,Wunderground v.1.15,2013-08-09 09:45:00,
2013-08-09 05:50:00,69.9,69.3,29.70,North,349,0.0,0.0,98,0.00,,,0.00,Wunderground v.1.15,2013-08-09 09:50:00,
2013-08-09 05:56:00,69.9,69.3,29.70,North,349,0.0,0.0,98,0.00,,,0.00,Wunderground v.1.15,2013-08-09 09:56:00,
2013-08-09 06:01:00,69.9,69.3,29.70,North,349,0.0,0.0,98,0.00,,,0.00,Wunderground v.1.15,2013-08-09 10:01:00,
2013-08-09 06:06:00,69.9,69.3,29.70,North,349,0.0,0.0,98,0.00,,,0.00,Wunderground v.1.15,2013-08-09 10:06:00,
2013-08-09 06:12:00,69.9,69.3,29.70,North,349,0.0,0.0,98,0.00,,,0.00,Wunderground v.1.15,2013-08-09 10:12:00,
2013-08-09 06:17:00,69.9,69.3,29.70,North,349,0.0,0.0,98,0.00,,,0.00,Wunderground v.1.15,2013-08-09 10:17:00,
2013-08-09 06:23:00,69.9,69.3,29.70,North,349,0.0,0.0,98,0.00,,,0.00,Wunderground v.1.15,2013-08-09 10:23:00,
2013-08-09 06:29:00,69.8,69.2,29.70,North,349,0.0,0.0,98,0.00,,,0.00,Wunderground v.1.15,2013-08-09 10:29:00,
2013-08-09 06:35:00,69.8,69.2,29.70,North,349,0.0,0.0,98,0.00,,,0.00,Wunderground v.1.15,2013-08-09 10:35:00,
2013-08-09 06:40:00,69.7,69.1,29.71,North,349,0.0,0.0,98,0.00,,,0.00,Wunderground v.1.15,2013-08-09 10:40:00,
2013-08-09 06:48:00,69.7,69.1,29.71,North,349,0.0,0.0,98,0.00,,,0.00,Wunderground v.1.15,2013-08-09 10:48:00,
2013-08-09 06:54:00,69.7,69.1,29.71,North,349,0.0,0.0,98,0.00,,,0.00,Wunderground v.1.15,2013-08-09 10:54:00,
2013-08-09 07:00:00,69.6,69.0,29.72,North,349,0.0,0.0,98,0.00,,,0.00,Wunderground v.1.15,2013-08-09 11:00:00,
2013-08-09 07:06:00,69.6,69.0,29.72,North,349,0.0,0.0,98,0.00,,,0.00,Wunderground v.1.15,2013-08-09 11:06:00,
2013-08-09 07:11:00,69.6,69.0,29.72,North,349,0.0,0.0,98,0.00,,,0.00,Wunderground v.1.15,2013-08-09 11:11:00,
2013-08-09 07:17:00,69.6,69.0,29.72,North,349,0.0,0.0,98,0.00,,,0.00,Wunderground v.1.15,2013-08-09 11:17:00,
2013-08-09 07:22:00,69.7,69.1,29.73,North,349,0.0,0.0,98,0.00,,,0.00,Wunderground v.1.15,2013-08-09 11:22:00,
2013-08-09 07:27:00,69.7,69.1,29.73,North,349,0.0,0.0,98,0.00,,,0.00,Wunderground v.1.15,2013-08-09 11:27:00,
2013-08-09 07:33:00,69.7,69.1,29.73,North,349,0.0,0.0,98,0.00,,,0.00,Wunderground v.1.15,2013-08-09 11:33:00,
2013-08-09 07:39:00,69.8,69.2,29.73,North,349,0.0,0.0,98,0.00,,,0.00,Wunderground v.1.15,2013-08-09 11:39:00,
2013-08-09 07:45:00,70.0,69.4,29.73,North,349,0.0,0.0,98,0.00,,,0.00,Wunderground v.1.15,2013-08-09 11:45:00,
2013-08-09 07:51:00,70.2,69.6,29.73,North,349,0.0,0.0,98,0.00,,,0.00,Wunderground v.1.15,2013-08-09 11:51:00,
2013-08-09 07:57:00,70.4,69.8,29.73,North,349,0.0,0.0,98,0.00,,,0.00,Wunderground v.1.15,2013-08-09 11:57:00,
2013-08-09 08:02:00,70.5,69.9,29.73,North,349,0.0,0.0,98,0.00,,,0.00,Wunderground v.1.15,2013-08-09 12:02:00,
2013-08-09 08:07:00,70.6,70.0,29.74,North,349,0.0,0.0,98,0.00,,,0.00,Wunderground v.1.15,2013-08-09 12:07:00,
2013-08-09 08:13:00,70.9,70.3,29.74,North,349,0.0,0.0,98,0.00,,,0.00,Wunderground v.1.15,2013-08-09 12:13:00,
2013-08-09 08:19:00,71.2,70.6,29.74,North,349,0.0,0.0,98,0.00,,,0.00,Wunderground v.1.15,2013-08-09 12:19:00,
2013-08-09 08:24:00,71.4,70.8,29.74,North,349,0.0,0.0,98,0.00,,,0.00,Wunderground v.1.15,2013-08-09 12:24:00,
2013-08-09 08:29:00,71.5,70.9,29.74,North,349,0.0,0.0,98,0.00,,,0.00,Wunderground v.1.15,2013-08-09 12:29:00,
2013-08-09 08:34:00,71.8,71.2,29.74,North,349,0.0,0.0,98,0.00,,,0.00,Wunderground v.1.15,2013-08-09 12:34:00,
2013-08-09 08:40:00,71.9,71.3,29.74,North,349,0.0,0.0,98,0.00,,,0.00,Wunderground v.1.15,2013-08-09 12:40:00,
2013-08-09 08:45:00,72.1,71.5,29.75,North,349,0.0,0.0,98,0.00,,,0.00,Wunderground v.1.15,2013-08-09 12:45:00,
2013-08-09 08:50:00,72.1,71.5,29.75,North,349,0.0,0.0,98,0.00,,,0.00,Wunderground v.1.15,2013-08-09 12:50:00,
2013-08-09 08:55:00,72.1,71.2,29.75,North,349,0.0,0.0,97,0.00,,,0.00,Wunderground v.1.15,2013-08-09 12:55:00,
2013-08-09 09:00:00,72.2,71.3,29.75,North,349,0.0,0.0,97,0.00,,,0.00,Wunderground v.1.15,2013-08-09 13:00:00,
2013-08-09 09:06:00,72.5,71.9,29.75,North,349,0.0,0.0,98,0.00,,,0.00,Wunderground v.1.15,2013-08-09 13:06:00,
2013-08-09 09:12:00,72.8,71.9,29.75,North,349,0.0,0.0,97,0.00,,,0.00,Wunderground v.1.15,2013-08-09 13:12:00,
2013-08-09 09:17:00,72.9,71.7,29.75,North,349,0.0,0.0,96,0.00,,,0.00,Wunderground v.1.15,2013-08-09 13:17:00,
2013-08-09 09:23:00,73.2,72.0,29.74,North,349,0.0,0.0,96,0.00,,,0.00,Wunderground v.1.15,2013-08-09 13:23:00,
2013-08-09 09:29:00,73.6,72.4,29.74,North,349,0.0,0.0,96,0.00,,,0.00,Wunderground v.1.15,2013-08-09 13:29:00,
2013-08-09 09:34:00,73.8,72.3,29.74,North,349,0.0,0.0,95,0.00,,,0.00,Wunderground v.1.15,2013-08-09 13:34:00,
2013-08-09 09:39:00,74.0,72.2,29.74,North,349,0.0,0.0,94,0.00,,,0.00,Wunderground v.1.15,2013-08-09 13:39:00,
2013-08-09 09:45:00,74.4,72.6,29.74,NNW,335,0.0,1.0,94,0.00,,,0.00,Wunderground v.1.15,2013-08-09 13:45:00,
2013-08-09 09:51:00,74.6,71.8,29.74,NE,34,0.0,0.0,91,0.00,,,0.00,Wunderground v.1.15,2013-08-09 13:51:00,
2013-08-09 09:57:00,74.9,72.7,29.74,NE,34,0.0,0.0,93,0.00,,,0.00,Wunderground v.1.15,2013-08-09 13:57:00,
2013-08-09 10:02:00,75.2,71.7,29.74,East,94,0.0,0.0,89,0.00,,,0.00,Wunderground v.1.15,2013-08-09 14:02:00,
2013-08-09 10:08:00,75.7,72.9,29.74,East,94,0.0,0.0,91,0.00,,,0.00,Wunderground v.1.15,2013-08-09 14:08:00,
2013-08-09 10:14:00,76.0,71.8,29.73,NNE,33,0.0,1.0,87,0.00,,,0.00,Wunderground v.1.15,2013-08-09 14:14:00,
2013-08-09 10:19:00,76.4,72.2,29.73,NNE,33,0.0,1.0,87,0.00,,,0.00,Wunderground v.1.15,2013-08-09 14:19:00,
2013-08-09 10:25:00,76.7,72.2,29.73,NE,49,0.0,1.0,86,0.00,,,0.00,Wunderground v.1.15,2013-08-09 14:25:00,
2013-08-09 10:30:00,77.0,73.2,29.73,NE,49,0.0,0.0,88,0.00,,,0.00,Wunderground v.1.15,2013-08-09 14:30:00,
2013-08-09 10:35:00,77.1,72.2,29.73,East,82,0.0,1.0,85,0.00,,,0.00,Wunderground v.1.15,2013-08-09 14:35:00,
2013-08-09 10:41:00,77.3,72.4,29.73,East,82,0.0,1.0,85,0.00,,,0.00,Wunderground v.1.15,2013-08-09 14:41:00,
2013-08-09 10:48:00,77.4,72.5,29.73,East,82,0.0,0.0,85,0.00,,,0.00,Wunderground v.1.15,2013-08-09 14:48:00,
2013-08-09 10:54:00,77.6,73.1,29.73,East,82,0.0,1.0,86,0.00,,,0.00,Wunderground v.1.15,2013-08-09 14:54:00,
2013-08-09 11:00:00,77.8,73.6,29.73,East,82,0.0,0.0,87,0.00,,,0.00,Wunderground v.1.15,2013-08-09 15:00:00,
2013-08-09 11:06:00,77.5,72.6,29.74,East,82,0.0,0.0,85,0.00,,,0.00,Wunderground v.1.15,2013-08-09 15:06:00,
2013-08-09 11:12:00,77.1,72.2,29.74,East,82,0.0,0.0,85,0.00,,,0.00,Wunderground v.1.15,2013-08-09 15:12:00,
2013-08-09 11:18:00,76.9,72.4,29.73,East,82,0.0,0.0,86,0.00,,,0.00,Wunderground v.1.15,2013-08-09 15:18:00,
2013-08-09 11:23:00,76.9,73.1,29.74,East,82,0.0,0.0,88,0.00,,,0.00,Wunderground v.1.15,2013-08-09 15:23:00,
2013-08-09 11:28:00,77.1,73.3,29.73,East,82,0.0,0.0,88,0.00,,,0.00,Wunderground v.1.15,2013-08-09 15:28:00,
2013-08-09 11:34:00,77.2,71.6,29.73,NNE,29,0.0,1.0,83,0.00,,,0.00,Wunderground v.1.15,2013-08-09 15:34:00,
2013-08-09 11:40:00,77.5,73.7,29.74,NNE,29,0.0,0.0,88,0.00,,,0.00,Wunderground v.1.15,2013-08-09 15:40:00,
2013-08-09 11:45:00,77.5,73.0,29.74,NNE,29,0.0,0.0,86,0.00,,,0.00,Wunderground v.1.15,2013-08-09 15:45:00,
2013-08-09 11:50:00,77.6,73.8,29.74,NNE,29,0.0,0.0,88,0.00,,,0.00,Wunderground v.1.15,2013-08-09 15:50:00,
2013-08-09 11:56:00,77.1,72.6,29.74,NNE,22,0.0,2.0,86,0.00,,,0.00,Wunderground v.1.15,2013-08-09 15:56:00,
2013-08-09 12:02:00,76.7,72.2,29.73,North,11,1.0,1.0,86,0.00,,,0.00,Wunderground v.1.15,2013-08-09 16:02:00,
2013-08-09 12:08:00,76.1,71.3,29.73,NNE,15,1.0,2.0,85,0.00,,,0.01,Wunderground v.1.15,2013-08-09 16:08:00,
2013-08-09 12:14:00,75.6,71.8,29.72,NNE,15,0.0,0.0,88,0.00,,,0.01,Wunderground v.1.15,2013-08-09 16:14:00,
2013-08-09 12:19:00,75.1,71.6,29.72,NNE,15,0.0,0.0,89,0.00,,,0.01,Wunderground v.1.15,2013-08-09 16:19:00,
2013-08-09 12:25:00,75.3,72.5,29.72,NNE,15,0.0,0.0,91,0.00,,,0.01,Wunderground v.1.15,2013-08-09 16:25:00,
2013-08-09 12:31:00,75.8,72.7,29.72,NW,323,0.0,0.0,90,0.00,,,0.01,Wunderground v.1.15,2013-08-09 16:31:00,
2013-08-09 12:37:00,76.6,72.8,29.71,NW,324,0.0,0.0,88,0.00,,,0.01,Wunderground v.1.15,2013-08-09 16:37:00,
2013-08-09 12:43:00,77.4,73.6,29.72,NW,324,0.0,0.0,88,0.00,,,0.01,Wunderground v.1.15,2013-08-09 16:43:00,
2013-08-09 12:48:00,78.3,73.1,29.72,NW,324,0.0,1.0,84,0.00,,,0.01,Wunderground v.1.15,2013-08-09 16:48:00,
2013-08-09 12:54:00,79.6,73.3,29.71,NNW,329,0.0,4.0,81,0.00,,,0.01,Wunderground v.1.15,2013-08-09 16:54:00,
2013-08-09 12:59:00,80.5,74.1,29.71,WNW,302,1.0,7.0,81,0.00,,,0.01,Wunderground v.1.15,2013-08-09 16:59:00,
2013-08-09 13:05:00,80.3,70.9,29.71,North,355,1.0,2.0,73,0.00,,,0.01,Wunderground v.1.15,2013-08-09 17:05:00,
2013-08-09 13:11:00,80.3,70.0,29.71,NNE,28,1.0,1.0,71,0.00,,,0.01,Wunderground v.1.15,2013-08-09 17:11:00,
2013-08-09 13:17:00,80.2,69.9,29.71,North,5,0.0,1.0,71,0.00,,,0.01,Wunderground v.1.15,2013-08-09 17:17:00,
2013-08-09 13:23:00,79.9,72.0,29.71,North,5,0.0,0.0,77,0.00,,,0.01,Wunderground v.1.15,2013-08-09 17:23:00,
2013-08-09 13:29:00,79.2,71.7,29.70,North,5,0.0,0.0,78,0.00,,,0.01,Wunderground v.1.15,2013-08-09 17:29:00,
2013-08-09 13:35:00,78.4,71.0,29.71,North,5,0.0,0.0,78,0.00,,,0.01,Wunderground v.1.15,2013-08-09 17:35:00,
2013-08-09 13:40:00,78.0,71.7,29.71,North,5,0.0,1.0,81,0.26,,,0.03,Wunderground v.1.15,2013-08-09 17:40:00,
2013-08-09 13:48:00,76.2,71.4,29.71,North,5,0.0,0.0,85,0.12,,,0.05,Wunderground v.1.15,2013-08-09 17:48:00,
2013-08-09 13:54:00,75.2,71.1,29.72,North,5,0.0,0.0,87,0.08,,,0.05,Wunderground v.1.15,2013-08-09 17:54:00,
2013-08-09 14:00:00,74.1,71.0,29.72,North,5,0.0,0.0,90,0.04,,,0.05,Wunderground v.1.15,2013-08-09 18:00:00,
2013-08-09 14:06:00,73.2,70.4,29.73,North,5,0.0,0.0,91,0.04,,,0.06,Wunderground v.1.15,2013-08-09 18:06:00,
2013-08-09 14:12:00,72.6,70.1,29.73,North,5,0.0,0.0,92,0.04,,,0.06,Wunderground v.1.15,2013-08-09 18:12:00,
2013-08-09 14:18:00,72.1,70.0,29.74,North,5,0.0,0.0,93,0.04,,,0.06,Wunderground v.1.15,2013-08-09 18:18:00,
2013-08-09 14:24:00,71.7,69.6,29.74,North,5,0.0,0.0,93,0.00,,,0.06,Wunderground v.1.15,2013-08-09 18:24:00,
2013-08-09 14:29:00,71.6,69.8,29.74,North,5,0.0,0.0,94,0.00,,,0.06,Wunderground v.1.15,2013-08-09 18:29:00,
2013-08-09 14:35:00,71.5,70.0,29.75,North,5,0.0,1.0,95,0.00,,,0.06,Wunderground v.1.15,2013-08-09 18:35:00,
2013-08-09 14:40:00,71.4,69.9,29.75,North,5,0.0,0.0,95,0.00,,,0.06,Wunderground v.1.15,2013-08-09 18:40:00,
2013-08-09 14:48:00,71.2,69.7,29.74,North,5,0.0,0.0,95,0.00,,,0.06,Wunderground v.1.15,2013-08-09 18:48:00,
2013-08-09 14:54:00,70.9,69.4,29.74,North,5,0.0,0.0,95,0.00,,,0.06,Wunderground v.1.15,2013-08-09 18:54:00,
2013-08-09 14:59:00,70.8,69.3,29.73,North,5,0.0,1.0,95,0.00,,,0.06,Wunderground v.1.15,2013-08-09 18:59:00,
2013-08-09 15:04:00,70.8,69.3,29.73,North,5,0.0,0.0,95,0.00,,,0.06,Wunderground v.1.15,2013-08-09 19:04:00,
2013-08-09 15:10:00,70.8,69.6,29.72,North,5,0.0,0.0,96,0.00,,,0.07,Wunderground v.1.15,2013-08-09 19:10:00,
2013-08-09 15:16:00,71.0,69.8,29.72,North,5,0.0,0.0,96,0.00,,,0.07,Wunderground v.1.15,2013-08-09 19:16:00,
2013-08-09 15:22:00,71.2,70.0,29.72,North,5,0.0,0.0,96,0.00,,,0.07,Wunderground v.1.15,2013-08-09 19:22:00,
2013-08-09 15:28:00,71.3,70.1,29.72,North,5,0.0,1.0,96,0.00,,,0.07,Wunderground v.1.15,2013-08-09 19:28:00,
2013-08-09 15:34:00,71.6,70.4,29.72,North,5,0.0,0.0,96,0.00,,,0.07,Wunderground v.1.15,2013-08-09 19:34:00,
2013-08-09 15:39:00,71.7,70.5,29.72,North,5,0.0,0.0,96,0.00,,,0.07,Wunderground v.1.15,2013-08-09 19:39:00,
2013-08-09 15:44:00,72.1,71.2,29.71,North,5,0.0,0.0,97,0.00,,,0.07,Wunderground v.1.15,2013-08-09 19:44:00,
2013-08-09 15:50:00,72.3,71.1,29.71,North,5,0.0,0.0,96,0.00,,,0.07,Wunderground v.1.15,2013-08-09 19:50:00,
2013-08-09 15:56:00,72.3,71.1,29.71,North,5,0.0,0.0,96,0.00,,,0.08,Wunderground v.1.15,2013-08-09 19:56:00,
2013-08-09 16:02:00,72.6,71.7,29.70,North,5,0.0,0.0,97,0.00,,,0.08,Wunderground v.1.15,2013-08-09 20:02:00,
2013-08-09 16:07:00,72.8,71.9,29.69,North,5,0.0,0.0,97,0.00,,,0.08,Wunderground v.1.15,2013-08-09 20:07:00,
2013-08-09 16:13:00,73.3,72.1,29.70,North,5,0.0,0.0,96,0.00,,,0.08,Wunderground v.1.15,2013-08-09 20:13:00,
2013-08-09 16:19:00,73.5,72.0,29.70,North,5,0.0,0.0,95,0.00,,,0.08,Wunderground v.1.15,2013-08-09 20:19:00,
2013-08-09 16:25:00,73.8,72.0,29.70,North,5,0.0,0.0,94,0.00,,,0.08,Wunderground v.1.15,2013-08-09 20:25:00,
2013-08-09 16:31:00,74.1,71.9,29.70,North,5,0.0,0.0,93,0.00,,,0.08,Wunderground v.1.15,2013-08-09 20:31:00,
2013-08-09 16:36:00,74.5,73.0,29.69,North,5,0.0,0.0,95,0.00,,,0.08,Wunderground v.1.15,2013-08-09 20:36:00,
2013-08-09 16:42:00,74.8,73.3,29.69,North,5,0.0,0.0,95,0.00,,,0.08,Wunderground v.1.15,2013-08-09 20:42:00,
2013-08-09 16:48:00,74.8,72.3,29.69,North,5,0.0,0.0,92,0.00,,,0.08,Wunderground v.1.15,2013-08-09 20:48:00,
2013-08-09 16:54:00,75.0,73.2,29.69,North,5,0.0,0.0,94,0.00,,,0.08,Wunderground v.1.15,2013-08-09 20:54:00,
2013-08-09 17:00:00,75.0,72.8,29.69,North,5,0.0,0.0,93,0.00,,,0.08,Wunderground v.1.15,2013-08-09 21:00:00,
2013-08-09 17:06:00,75.0,72.2,29.69,North,5,0.0,0.0,91,0.00,,,0.08,Wunderground v.1.15,2013-08-09 21:06:00,
2013-08-09 17:12:00,75.2,73.0,29.69,North,5,0.0,0.0,93,0.00,,,0.08,Wunderground v.1.15,2013-08-09 21:12:00,
2013-08-09 17:18:00,75.2,73.0,29.69,North,5,0.0,0.0,93,0.00,,,0.08,Wunderground v.1.15,2013-08-09 21:18:00,
2013-08-09 17:24:00,75.5,73.0,29.69,North,5,0.0,0.0,92,0.00,,,0.08,Wunderground v.1.15,2013-08-09 21:24:00,
2013-08-09 17:29:00,75.8,73.6,29.69,North,5,0.0,0.0,93,0.00,,,0.08,Wunderground v.1.15,2013-08-09 21:29:00,
2013-08-09 17:35:00,75.9,73.1,29.68,North,5,0.0,0.0,91,0.00,,,0.08,Wunderground v.1.15,2013-08-09 21:35:00,
2013-08-09 17:40:00,76.1,73.6,29.68,North,5,0.0,0.0,92,0.00,,,0.08,Wunderground v.1.15,2013-08-09 21:40:00,
2013-08-09 17:48:00,76.3,73.8,29.68,North,5,0.0,0.0,92,0.00,,,0.08,Wunderground v.1.15,2013-08-09 21:48:00,
2013-08-09 17:54:00,76.3,73.8,29.67,North,5,0.0,0.0,92,0.00,,,0.08,Wunderground v.1.15,2013-08-09 21:54:00,
2013-08-09 18:00:00,76.3,74.1,29.67,North,5,0.0,0.0,93,0.00,,,0.08,Wunderground v.1.15,2013-08-09 22:00:00,
2013-08-09 18:06:00,76.4,74.2,29.67,North,5,0.0,0.0,93,0.00,,,0.08,Wunderground v.1.15,2013-08-09 22:06:00,
2013-08-09 18:11:00,76.4,73.9,29.67,North,5,0.0,0.0,92,0.00,,,0.08,Wunderground v.1.15,2013-08-09 22:11:00,
2013-08-09 18:17:00,76.3,73.8,29.67,North,5,0.0,0.0,92,0.00,,,0.08,Wunderground v.1.15,2013-08-09 22:17:00,
2013-08-09 18:23:00,76.1,73.6,29.68,North,5,0.0,0.0,92,0.00,,,0.08,Wunderground v.1.15,2013-08-09 22:23:00,
2013-08-09 18:29:00,76.1,73.9,29.67,North,5,0.0,0.0,93,0.00,,,0.08,Wunderground v.1.15,2013-08-09 22:29:00,
2013-08-09 18:35:00,75.9,73.4,29.67,North,5,0.0,0.0,92,0.00,,,0.08,Wunderground v.1.15,2013-08-09 22:35:00,
2013-08-09 18:40:00,75.8,73.6,29.67,North,5,0.0,0.0,93,0.00,,,0.08,Wunderground v.1.15,2013-08-09 22:40:00,
2013-08-09 18:48:00,75.7,73.8,29.67,North,5,0.0,0.0,94,0.00,,,0.08,Wunderground v.1.15,2013-08-09 22:48:00,
2013-08-09 18:54:00,75.6,73.8,29.68,North,5,0.0,0.0,94,0.00,,,0.08,Wunderground v.1.15,2013-08-09 22:54:00,
2013-08-09 19:00:00,75.5,73.7,29.68,North,5,0.0,0.0,94,0.00,,,0.08,Wunderground v.1.15,2013-08-09 23:00:00,
2013-08-09 19:06:00,75.3,73.5,29.68,North,5,0.0,0.0,94,0.00,,,0.08,Wunderground v.1.15,2013-08-09 23:06:00,
2013-08-09 19:12:00,75.3,73.5,29.68,North,5,0.0,0.0,94,0.00,,,0.08,Wunderground v.1.15,2013-08-09 23:12:00,
2013-08-09 19:18:00,75.2,73.4,29.68,North,5,0.0,0.0,94,0.00,,,0.08,Wunderground v.1.15,2013-08-09 23:18:00,
2013-08-09 19:23:00,75.1,73.3,29.68,North,5,0.0,0.0,94,0.00,,,0.08,Wunderground v.1.15,2013-08-09 23:23:00,
2013-08-09 19:28:00,75.0,73.2,29.69,North,5,0.0,0.0,94,0.00,,,0.08,Wunderground v.1.15,2013-08-09 23:28:00,
2013-08-09 19:34:00,74.9,73.1,29.69,North,5,0.0,0.0,94,0.00,,,0.08,Wunderground v.1.15,2013-08-09 23:34:00,
2013-08-09 19:39:00,74.9,73.1,29.69,North,5,0.0,0.0,94,0.00,,,0.08,Wunderground v.1.15,2013-08-09 23:39:00,
2013-08-09 19:45:00,74.8,73.0,29.68,North,5,0.0,0.0,94,0.00,,,0.08,Wunderground v.1.15,2013-08-09 23:45:00,
2013-08-09 19:50:00,74.8,73.0,29.68,North,5,0.0,0.0,94,0.00,,,0.08,Wunderground v.1.15,2013-08-09 23:50:00,
2013-08-09 19:55:00,74.7,72.9,29.68,North,5,0.0,0.0,94,0.00,,,0.08,Wunderground v.1.15,2013-08-09 23:55:00,
2013-08-09 20:00:00,74.5,72.7,29.68,North,5,0.0,0.0,94,0.00,,,0.08,Wunderground v.1.15,2013-08-10 00:00:00,
2013-08-09 20:06:00,74.4,72.9,29.68,North,5,0.0,0.0,95,0.00,,,0.08,Wunderground v.1.15,2013-08-10 00:06:00,
2013-08-09 20:12:00,74.2,72.4,29.68,North,5,0.0,0.0,94,0.00,,,0.08,Wunderground v.1.15,2013-08-10 00:12:00,
2013-08-09 20:18:00,74.0,72.2,29.69,North,5,0.0,0.0,94,0.00,,,0.08,Wunderground v.1.15,2013-08-10 00:18:00,
2013-08-09 20:24:00,73.8,72.0,29.69,North,5,0.0,0.0,94,0.00,,,0.08,Wunderground v.1.15,2013-08-10 00:24:00,
2013-08-09 20:29:00,73.7,72.2,29.69,North,5,0.0,0.0,95,0.00,,,0.08,Wunderground v.1.15,2013-08-10 00:29:00,
2013-08-09 20:35:00,73.5,72.0,29.69,North,5,0.0,0.0,95,0.00,,,0.08,Wunderground v.1.15,2013-08-10 00:35:00,
2013-08-09 20:41:00,73.3,71.8,29.70,North,5,0.0,0.0,95,0.00,,,0.08,Wunderground v.1.15,2013-08-10 00:41:00,
2013-08-09 20:48:00,73.1,71.6,29.70,North,5,0.0,0.0,95,0.00,,,0.08,Wunderground v.1.15,2013-08-10 00:48:00,
2013-08-09 20:54:00,72.9,71.4,29.70,North,5,0.0,0.0,95,0.00,,,0.08,Wunderground v.1.15,2013-08-10 00:54:00,
2013-08-09 21:00:00,72.8,71.3,29.71,North,5,0.0,0.0,95,0.00,,,0.08,Wunderground v.1.15,2013-08-10 01:00:00,
2013-08-09 21:06:00,72.7,71.2,29.72,North,5,0.0,0.0,95,0.00,,,0.08,Wunderground v.1.15,2013-08-10 01:06:00,
2013-08-09 21:12:00,72.6,71.1,29.72,North,5,0.0,0.0,95,0.00,,,0.08,Wunderground v.1.15,2013-08-10 01:12:00,
2013-08-09 21:18:00,72.6,71.4,29.73,North,5,0.0,0.0,96,0.00,,,0.08,Wunderground v.1.15,2013-08-10 01:18:00,
2013-08-09 21:24:00,72.5,71.3,29.73,North,5,0.0,0.0,96,0.00,,,0.08,Wunderground v.1.15,2013-08-10 01:24:00,
2013-08-09 21:30:00,72.5,71.3,29.73,North,5,0.0,0.0,96,0.00,,,0.08,Wunderground v.1.15,2013-08-10 01:30:00,
2013-08-09 21:36:00,72.5,71.3,29.74,North,5,0.0,0.0,96,0.00,,,0.08,Wunderground v.1.15,2013-08-10 01:36:00,
2013-08-09 21:42:00,72.5,71.3,29.74,North,5,0.0,0.0,96,0.00,,,0.08,Wunderground v.1.15,2013-08-10 01:42:00,
2013-08-09 21:48:00,72.5,71.3,29.74,North,5,0.0,0.0,96,0.00,,,0.08,Wunderground v.1.15,2013-08-10 01:48:00,
2013-08-09 21:54:00,72.5,71.3,29.75,North,5,0.0,0.0,96,0.00,,,0.08,Wunderground v.1.15,2013-08-10 01:54:00,
2013-08-09 22:00:00,72.4,71.2,29.75,North,5,0.0,0.0,96,0.00,,,0.08,Wunderground v.1.15,2013-08-10 02:00:00,
2013-08-09 22:06:00,72.4,71.2,29.75,North,5,0.0,0.0,96,0.00,,,0.08,Wunderground v.1.15,2013-08-10 02:06:00,
2013-08-09 22:12:00,72.4,71.5,29.75,North,5,0.0,0.0,97,0.00,,,0.08,Wunderground v.1.15,2013-08-10 02:12:00,
2013-08-09 22:17:00,72.4,71.5,29.75,North,5,0.0,0.0,97,0.00,,,0.08,Wunderground v.1.15,2013-08-10 02:17:00,
2013-08-09 22:23:00,72.3,71.4,29.75,North,5,0.0,0.0,97,0.00,,,0.08,Wunderground v.1.15,2013-08-10 02:23:00,
2013-08-09 22:29:00,72.3,71.1,29.75,North,5,0.0,0.0,96,0.00,,,0.08,Wunderground v.1.15,2013-08-10 02:29:00,
2013-08-09 22:35:00,72.2,71.0,29.75,North,5,0.0,0.0,96,0.00,,,0.08,Wunderground v.1.15,2013-08-10 02:35:00,
2013-08-09 22:40:00,72.2,71.0,29.76,North,5,0.0,0.0,96,0.00,,,0.08,Wunderground v.1.15,2013-08-10 02:40:00,
2013-08-09 22:48:00,72.1,70.9,29.76,North,5,0.0,0.0,96,0.00,,,0.08,Wunderground v.1.15,2013-08-10 02:48:00,
2013-08-09 22:54:00,72.0,70.8,29.75,North,5,0.0,0.0,96,0.00,,,0.08,Wunderground v.1.15,2013-08-10 02:54:00,
2013-08-09 22:59:00,72.0,70.8,29.75,North,5,0.0,0.0,96,0.00,,,0.08,Wunderground v.1.15,2013-08-10 02:59:00,
2013-08-09 23:04:00,71.9,71.0,29.75,North,5,0.0,0.0,97,0.00,,,0.08,Wunderground v.1.15,2013-08-10 03:04:00,
2013-08-09 23:10:00,71.9,71.0,29.76,North,5,0.0,0.0,97,0.00,,,0.08,Wunderground v.1.15,2013-08-10 03:10:00,
2013-08-09 23:16:00,71.9,71.0,29.75,North,5,0.0,0.0,97,0.00,,,0.08,Wunderground v.1.15,2013-08-10 03:16:00,
2013-08-09 23:21:00,71.8,70.9,29.75,North,5,0.0,0.0,97,0.00,,,0.08,Wunderground v.1.15,2013-08-10 03:21:00,
2013-08-09 23:27:00,71.8,70.9,29.75,North,5,0.0,0.0,97,0.00,,,0.08,Wunderground v.1.15,2013-08-10 03:27:00,
2013-08-09 23:32:00,71.8,70.9,29.75,North,5,0.0,1.0,97,0.00,,,0.08,Wunderground v.1.15,2013-08-10 03:32:00,
2013-08-09 23:38:00,71.8,70.9,29.75,North,5,0.0,1.0,97,0.00,,,0.08,Wunderground v.1.15,2013-08-10 03:38:00,
2013-08-09 23:44:00,71.7,70.8,29.76,North,5,0.0,0.0,97,0.00,,,0.08,Wunderground v.1.15,2013-08-10 03:44:00,
2013-08-09 23:50:00,71.7,70.8,29.76,North,5,0.0,0.0,97,0.00,,,0.08,Wunderground v.1.15,2013-08-10 03:50:00,
2013-08-09 23:56:00,71.7,70.8,29.75,North,5,0.0,0.0,97,0.00,,,0.08,Wunderground v.1.15,2013-08-10 03:56:00,